< < Back
Terminal Aerodrome Forecast


Current Version              Previous Versions:   1  2  3  4  5  6  7  8  9  

Terminal Aerodrome Forecast

682
FTUS42 KGSP 051502 AAB
TAFAND
TAF AMD
KAND 051502Z 0515/0612 23010KT P6SM SCT025 BKN060
      TEMPO 0515/0516 BKN025 OVC060
     FM051800 22012G20KT P6SM VCTS BKN050CB
     FM060000 21005KT P6SM SCT120 BKN250=

Latest METAR

101
SAUS70 KWBC 052200
MTRAND
METAR KAND 052156Z AUTO 23007KT 10SM FEW045 SCT100 27/21 A3006 RMK AO2
RAB25E34 SLP171 P0000 T02670211


USA.gov is the U.S. government's official web portal to all federal, state and local government web resources and services.